createdAt,value
2022-12-23T00:01:18.361Z,72.64
2022-12-23T00:03:20.404Z,72.50
2022-12-23T00:05:22.535Z,72.83
2022-12-23T00:07:24.511Z,72.41
2022-12-23T00:09:26.506Z,72.27
2022-12-23T00:11:29.081Z,72.61
2022-12-23T00:13:34.201Z,72.76
2022-12-23T00:15:36.270Z,72.85
2022-12-23T00:17:43.028Z,72.62
2022-12-23T00:19:45.148Z,72.78
2022-12-23T00:21:48.715Z,72.36
2022-12-23T00:23:51.875Z,71.45
2022-12-23T00:25:54.067Z,71.60
2022-12-23T00:27:59.113Z,71.27
2022-12-23T00:30:01.150Z,70.77
2022-12-23T00:32:03.250Z,71.04
2022-12-23T00:34:05.145Z,70.97
2022-12-23T00:36:13.488Z,70.77
2022-12-23T00:38:16.273Z,70.77
2022-12-23T00:40:21.535Z,70.65
2022-12-23T00:42:26.526Z,70.72
2022-12-23T00:44:28.591Z,70.71
2022-12-23T00:46:31.334Z,70.33
2022-12-23T00:48:36.688Z,70.20
2022-12-23T00:50:40.038Z,70.60
2022-12-23T00:52:41.954Z,70.67
2022-12-23T00:54:44.037Z,71.03
2022-12-23T00:56:46.118Z,70.55
2022-12-23T00:58:48.029Z,70.56
2022-12-23T01:00:53.136Z,70.51
2022-12-23T01:02:58.348Z,70.64
2022-12-23T01:05:03.489Z,70.77
2022-12-23T01:07:06.316Z,71.27
2022-12-23T01:09:08.267Z,70.83
2022-12-23T01:11:12.170Z,70.99
2022-12-23T01:13:14.119Z,70.57
2022-12-23T01:15:16.162Z,70.46
2022-12-23T01:17:18.216Z,71.04
2022-12-23T01:19:20.690Z,71.08
2022-12-23T01:21:22.686Z,71.47
2022-12-23T01:23:24.630Z,70.98
2022-12-23T01:25:26.577Z,71.10
2022-12-23T01:27:28.615Z,71.47
2022-12-23T01:29:30.571Z,71.35
2022-12-23T01:31:32.632Z,71.19
2022-12-23T01:33:34.616Z,71.03
2022-12-23T01:35:36.542Z,71.33
2022-12-23T01:37:38.473Z,71.25
2022-12-23T01:39:40.651Z,70.73
2022-12-23T01:41:45.827Z,70.55
2022-12-23T01:43:50.561Z,70.72
2022-12-23T01:45:52.624Z,71.09
2022-12-23T01:47:58.025Z,70.94
2022-12-23T01:50:07.261Z,70.74
2022-12-23T01:52:10.908Z,70.74
2022-12-23T01:54:12.846Z,70.51
2022-12-23T01:56:21.370Z,70.42
2022-12-23T01:58:30.647Z,70.59
2022-12-23T02:00:35.642Z,70.66
2022-12-23T02:02:44.233Z,71.16
2022-12-23T02:04:47.725Z,71.09
2022-12-23T02:06:54.215Z,71.41
2022-12-23T02:09:00.671Z,71.14
2022-12-23T02:11:08.987Z,71.37
2022-12-23T02:13:21.449Z,71.50
2022-12-23T02:15:35.552Z,70.82
2022-12-23T02:17:44.176Z,70.96
2022-12-23T02:20:02.382Z,70.40
2022-12-23T02:22:07.869Z,71.23
2022-12-23T02:24:14.417Z,71.19
2022-12-23T02:26:22.724Z,71.30
2022-12-23T02:28:28.304Z,71.59
2022-12-23T02:30:40.963Z,71.44
2022-12-23T02:32:48.785Z,71.38
2022-12-23T02:34:51.565Z,71.46
2022-12-23T02:37:00.667Z,71.99
2022-12-23T02:39:08.912Z,71.96
2022-12-23T02:41:23.231Z,71.99
2022-12-23T02:43:31.108Z,72.06
2022-12-23T02:45:40.672Z,72.00
2022-12-23T02:47:50.927Z,72.12
2022-12-23T02:49:58.089Z,71.67
2022-12-23T02:52:03.528Z,72.29
2022-12-23T02:54:12.028Z,72.40
2022-12-23T02:56:17.295Z,72.04
2022-12-23T02:58:23.270Z,72.70
2022-12-23T03:00:25.316Z,72.82
2022-12-23T03:02:27.789Z,72.06
2022-12-23T03:04:30.045Z,72.23
2022-12-23T03:06:39.555Z,72.03
2022-12-23T03:08:44.950Z,72.44
2022-12-23T03:10:48.767Z,72.14
2022-12-23T03:12:51.459Z,72.13
2022-12-23T03:14:56.315Z,72.66
2022-12-23T03:17:04.223Z,72.49
2022-12-23T03:19:12.540Z,72.18
2022-12-23T03:21:20.504Z,72.28
2022-12-23T03:23:30.744Z,72.26
2022-12-23T03:25:40.794Z,72.72
2022-12-23T03:27:51.861Z,72.71
2022-12-23T03:29:56.580Z,73.11
2022-12-23T03:32:01.710Z,72.45
2022-12-23T03:34:10.899Z,72.60
2022-12-23T03:36:22.595Z,72.91
2022-12-23T03:38:26.393Z,72.59
2022-12-23T03:40:36.335Z,72.72
2022-12-23T03:42:42.005Z,72.80
2022-12-23T03:45:19.080Z,73.27
2022-12-23T03:47:15.022Z,73.20
2022-12-23T03:49:27.849Z,73.06
2022-12-23T03:51:34.448Z,73.21
2022-12-23T03:53:42.531Z,73.01
2022-12-23T03:55:51.740Z,73.47
2022-12-23T03:58:00.061Z,73.28
2022-12-23T04:00:02.241Z,73.42
2022-12-23T04:02:09.016Z,73.51
2022-12-23T04:04:12.048Z,73.27
2022-12-23T04:06:17.897Z,73.27
2022-12-23T04:08:26.682Z,73.34
2022-12-23T04:10:29.083Z,73.41
2022-12-23T04:12:32.031Z,73.60
2022-12-23T04:14:37.039Z,73.55
2022-12-23T04:16:39.092Z,73.69
2022-12-23T04:18:41.059Z,73.42
2022-12-23T04:20:42.986Z,73.40
2022-12-23T04:22:45.123Z,73.58
2022-12-23T04:24:47.116Z,73.85
2022-12-23T04:26:49.107Z,73.85
2022-12-23T04:28:50.998Z,73.79
2022-12-23T04:30:52.980Z,73.52
2022-12-23T04:32:54.952Z,73.17
2022-12-23T04:34:56.853Z,73.29
2022-12-23T04:36:58.826Z,73.50
2022-12-23T04:39:00.775Z,74.07
2022-12-23T04:41:02.874Z,73.69
2022-12-23T04:43:04.753Z,74.03
2022-12-23T04:45:07.548Z,73.96
2022-12-23T04:47:09.556Z,73.52
2022-12-23T04:49:11.721Z,74.16
2022-12-23T04:51:13.702Z,74.49
2022-12-23T04:53:15.762Z,74.52
2022-12-23T04:55:17.776Z,74.05
2022-12-23T04:57:19.717Z,74.15
2022-12-23T04:59:21.683Z,74.78
2022-12-23T05:01:23.745Z,74.11
2022-12-23T05:03:26.031Z,74.39
2022-12-23T05:05:28.010Z,73.57
2022-12-23T05:07:29.962Z,73.96
2022-12-23T05:09:32.073Z,73.97
2022-12-23T05:11:38.554Z,73.93
2022-12-23T05:13:44.025Z,73.71
2022-12-23T05:15:50.141Z,73.81
2022-12-23T05:17:52.205Z,73.09
2022-12-23T05:19:54.268Z,73.41
2022-12-23T05:21:56.268Z,73.33
2022-12-23T05:23:58.345Z,72.82
2022-12-23T05:26:00.543Z,72.55
2022-12-23T05:28:02.942Z,72.18
2022-12-23T05:30:05.688Z,72.59
2022-12-23T05:32:07.755Z,72.43
2022-12-23T05:34:09.908Z,72.69
2022-12-23T05:36:13.013Z,72.22
2022-12-23T05:38:14.988Z,72.08
2022-12-23T05:40:23.153Z,72.25
2022-12-23T05:42:25.545Z,72.27
2022-12-23T05:44:27.503Z,72.49
2022-12-23T05:46:29.763Z,73.06
2022-12-23T05:48:31.977Z,72.28
2022-12-23T05:50:34.284Z,72.48
2022-12-23T05:52:36.257Z,71.90
2022-12-23T05:54:38.190Z,71.98
2022-12-23T05:56:40.107Z,71.37
2022-12-23T05:58:43.081Z,71.12
2022-12-23T06:00:45.122Z,71.52
2022-12-23T06:02:53.632Z,72.01
2022-12-23T06:04:56.325Z,71.72
2022-12-23T06:06:58.290Z,71.50
2022-12-23T06:09:00.491Z,72.26
2022-12-23T06:11:05.275Z,71.90
2022-12-23T06:13:07.341Z,72.30
2022-12-23T06:15:10.043Z,72.60
2022-12-23T06:17:11.968Z,72.90
2022-12-23T06:19:13.960Z,72.82
2022-12-23T06:21:16.033Z,73.42
2022-12-23T06:23:18.080Z,74.36
2022-12-23T06:25:20.143Z,74.68
2022-12-23T06:27:22.144Z,75.42
2022-12-23T06:29:24.429Z,74.78
2022-12-23T06:31:26.375Z,75.32
2022-12-23T06:33:28.314Z,75.41
2022-12-23T06:35:30.524Z,75.93
2022-12-23T06:37:32.486Z,76.11
2022-12-23T06:39:34.624Z,76.60
2022-12-23T06:41:36.873Z,76.68
2022-12-23T06:43:39.081Z,76.22
2022-12-23T06:45:41.618Z,76.23
2022-12-23T06:47:43.661Z,77.04
2022-12-23T06:49:45.625Z,76.54
2022-12-23T06:51:47.643Z,76.25
2022-12-23T06:53:49.639Z,76.53
2022-12-23T06:55:59.906Z,77.04
2022-12-23T06:58:02.038Z,77.27
2022-12-23T07:00:05.796Z,77.41
2022-12-23T07:02:09.645Z,77.40
2022-12-23T07:04:11.708Z,77.85
2022-12-23T07:06:14.018Z,78.22
2022-12-23T07:08:16.492Z,78.10
2022-12-23T07:10:18.411Z,77.94
2022-12-23T07:12:20.424Z,78.03
2022-12-23T07:14:22.434Z,78.18
2022-12-23T07:16:24.400Z,79.00
2022-12-23T07:18:26.596Z,78.67
2022-12-23T07:20:28.586Z,78.92
2022-12-23T07:22:30.911Z,78.71
2022-12-23T07:24:32.885Z,80.08
2022-12-23T07:26:34.855Z,80.63
2022-12-23T07:28:36.815Z,80.59
2022-12-23T07:30:38.844Z,81.20
2022-12-23T07:32:40.934Z,81.43
2022-12-23T07:34:42.908Z,81.86
2022-12-23T07:36:44.897Z,81.74
2022-12-23T07:38:51.456Z,81.80
2022-12-23T07:40:53.443Z,81.66
2022-12-23T07:42:58.057Z,81.84
2022-12-23T07:44:59.985Z,81.56
2022-12-23T07:47:02.163Z,81.73
2022-12-23T07:49:04.164Z,81.42
2022-12-23T07:51:06.633Z,82.10
2022-12-23T07:53:08.993Z,81.97
2022-12-23T07:55:10.931Z,81.15
2022-12-23T07:57:12.895Z,81.92
2022-12-23T07:59:14.977Z,81.98
2022-12-23T08:01:17.928Z,81.82
2022-12-23T08:03:20.091Z,81.32
2022-12-23T08:05:22.455Z,82.10
2022-12-23T08:07:24.504Z,82.59
2022-12-23T08:09:26.499Z,82.25
2022-12-23T08:11:28.653Z,83.12
2022-12-23T08:13:32.299Z,82.35
2022-12-23T08:15:34.321Z,83.13
2022-12-23T08:17:36.337Z,82.76
2022-12-23T08:19:38.339Z,82.79
2022-12-23T08:21:40.272Z,82.97
2022-12-23T08:23:43.836Z,82.76
2022-12-23T08:25:45.823Z,82.71
2022-12-23T08:27:47.908Z,82.47
2022-12-23T08:29:49.981Z,82.93
2022-12-23T08:31:52.033Z,83.17
2022-12-23T08:33:57.012Z,83.58
2022-12-23T08:35:59.230Z,83.55
2022-12-23T08:38:01.235Z,83.07
2022-12-23T08:40:03.626Z,83.69
2022-12-23T08:42:05.801Z,84.67
2022-12-23T08:44:08.623Z,84.88
2022-12-23T08:46:11.160Z,84.68
2022-12-23T08:48:13.965Z,84.42
2022-12-23T08:50:16.097Z,83.73
2022-12-23T08:52:18.039Z,84.38
2022-12-23T08:54:20.674Z,84.29
2022-12-23T08:56:24.331Z,84.15
2022-12-23T08:58:26.402Z,83.70
2022-12-23T09:00:28.314Z,83.43
2022-12-23T09:02:30.518Z,83.73
2022-12-23T09:04:32.870Z,83.48
2022-12-23T09:06:40.881Z,83.22
2022-12-23T09:08:43.542Z,83.62
2022-12-23T09:10:45.547Z,83.62
2022-12-23T09:12:47.889Z,83.47
2022-12-23T09:14:49.846Z,84.05
2022-12-23T09:16:52.666Z,84.15
2022-12-23T09:18:55.050Z,83.53
2022-12-23T09:21:00.064Z,83.30
2022-12-23T09:23:02.375Z,83.43
2022-12-23T09:25:05.468Z,83.42
2022-12-23T09:27:07.537Z,83.85
2022-12-23T09:29:09.566Z,83.44
2022-12-23T09:31:13.592Z,83.96
2022-12-23T09:33:15.711Z,83.99
2022-12-23T09:35:17.934Z,84.11
2022-12-23T09:37:20.465Z,84.65
2022-12-23T09:39:22.607Z,85.06
2022-12-23T09:41:30.856Z,84.85
2022-12-23T09:43:36.383Z,85.30
2022-12-23T09:45:44.609Z,85.56
2022-12-23T09:47:47.074Z,85.52
2022-12-23T09:49:54.290Z,84.86
2022-12-23T09:52:02.100Z,84.88
2022-12-23T09:54:17.426Z,84.90
2022-12-23T09:56:28.091Z,84.60
2022-12-23T09:58:37.127Z,84.72
2022-12-23T10:00:44.200Z,84.77
2022-12-23T10:02:48.398Z,84.09
2022-12-23T10:04:56.875Z,83.92
2022-12-23T10:07:03.256Z,84.66
2022-12-23T10:09:09.816Z,83.93
2022-12-23T10:11:17.354Z,84.38
2022-12-23T10:13:26.528Z,84.47
2022-12-23T10:15:33.028Z,84.83
2022-12-23T10:17:41.924Z,85.13
2022-12-23T10:19:47.709Z,84.95
2022-12-23T10:21:55.425Z,85.19
2022-12-23T10:24:01.326Z,85.08
2022-12-23T10:26:12.624Z,84.56
2022-12-23T10:28:14.651Z,85.22
2022-12-23T10:32:49.663Z,85.72
2022-12-23T10:34:58.111Z,85.25
2022-12-23T10:37:06.055Z,85.72
2022-12-23T10:39:18.926Z,85.67
2022-12-23T10:41:38.409Z,85.75
2022-12-23T10:43:52.447Z,85.52
2022-12-23T10:46:08.039Z,85.46
2022-12-23T10:48:14.442Z,85.57
2022-12-23T10:50:22.902Z,85.87
2022-12-23T10:52:28.801Z,86.36
2022-12-23T10:54:35.242Z,86.11
2022-12-23T10:56:37.665Z,85.86
2022-12-23T10:58:43.946Z,86.26
2022-12-23T11:00:53.565Z,85.90
2022-12-23T11:02:59.197Z,84.25
2022-12-23T11:05:01.311Z,84.98
2022-12-23T11:07:41.938Z,85.28
2022-12-23T11:09:36.908Z,85.60
2022-12-23T11:11:45.127Z,84.90
2022-12-23T11:13:47.917Z,85.30
2022-12-23T11:15:50.269Z,85.20
2022-12-23T11:17:58.898Z,85.50
2022-12-23T11:20:07.308Z,85.42
2022-12-23T11:22:23.748Z,85.54
2022-12-23T11:24:28.533Z,84.86
2022-12-23T11:26:30.973Z,85.18
2022-12-23T11:28:36.563Z,85.35
2022-12-23T11:30:56.196Z,85.27
2022-12-23T11:32:59.529Z,85.08
2022-12-23T11:35:01.623Z,84.53
2022-12-23T11:37:07.571Z,85.38
2022-12-23T11:39:12.648Z,85.48
2022-12-23T11:41:21.225Z,85.24
2022-12-23T11:43:26.457Z,85.07
2022-12-23T11:45:33.480Z,84.93
2022-12-23T11:47:41.533Z,84.84
2022-12-23T11:49:49.721Z,84.97
2022-12-23T11:51:58.185Z,85.17
2022-12-23T11:54:02.432Z,85.25
2022-12-23T11:56:08.587Z,85.19
2022-12-23T11:58:18.688Z,85.95
2022-12-23T12:00:26.635Z,86.52
2022-12-23T12:02:32.543Z,86.07
2022-12-23T12:04:36.190Z,86.58
2022-12-23T12:06:51.135Z,87.03
2022-12-23T12:08:56.315Z,85.85
2022-12-23T12:11:05.360Z,85.87
2022-12-23T12:13:22.114Z,85.79
2022-12-23T12:15:30.459Z,85.63
2022-12-23T12:17:38.688Z,85.67
2022-12-23T12:19:50.748Z,86.04
2022-12-23T12:21:59.606Z,85.98
2022-12-23T12:24:19.025Z,85.49
2022-12-23T12:26:28.789Z,84.98
2022-12-23T12:28:39.778Z,84.94
2022-12-23T12:30:51.212Z,84.77
2022-12-23T12:33:01.102Z,84.83
2022-12-23T12:35:11.930Z,84.28
2022-12-23T12:37:16.898Z,83.30
2022-12-23T12:39:29.111Z,82.63
2022-12-23T12:41:34.746Z,82.06
2022-12-23T12:43:44.867Z,81.71
2022-12-23T12:45:54.137Z,81.63
2022-12-23T12:48:12.813Z,81.28
2022-12-23T12:50:24.641Z,81.22
2022-12-23T12:52:28.307Z,81.54
2022-12-23T12:54:40.272Z,81.48
2022-12-23T12:56:50.240Z,81.51
2022-12-23T12:58:52.438Z,81.06
2022-12-23T13:00:58.212Z,80.07
2022-12-23T13:03:06.641Z,79.42
2022-12-23T13:05:14.788Z,79.64
2022-12-23T13:07:23.070Z,79.52
2022-12-23T13:09:31.392Z,79.27
2022-12-23T13:11:38.027Z,78.12
2022-12-23T13:13:43.489Z,77.14
2022-12-23T13:15:47.557Z,76.22
2022-12-23T13:17:58.889Z,74.86
2022-12-23T13:20:10.458Z,74.87
2022-12-23T13:22:18.147Z,74.61
2022-12-23T13:24:24.653Z,74.68
2022-12-23T13:26:36.450Z,73.02
2022-12-23T13:28:48.848Z,73.08
2022-12-23T13:31:06.441Z,72.63
2022-12-23T13:33:18.879Z,72.40
2022-12-23T13:35:25.384Z,72.10
2022-12-23T13:37:33.547Z,71.16
2022-12-23T13:39:45.881Z,71.02
2022-12-23T13:41:52.173Z,71.06
2022-12-23T13:43:59.656Z,70.76
2022-12-23T13:46:09.234Z,70.35
2022-12-23T13:48:15.895Z,70.14
2022-12-23T13:50:34.320Z,69.91
2022-12-23T13:52:44.166Z,70.79
2022-12-23T13:54:49.783Z,70.27
2022-12-23T13:57:08.538Z,70.49
2022-12-23T13:59:14.661Z,70.90
2022-12-23T14:01:18.594Z,70.74
2022-12-23T14:03:25.524Z,71.17
2022-12-23T14:05:31.026Z,70.73
2022-12-23T14:07:34.401Z,71.10
2022-12-23T14:09:38.748Z,70.95
2022-12-23T14:11:41.177Z,71.21
2022-12-23T14:13:46.174Z,71.06
2022-12-23T14:15:51.751Z,71.13
2022-12-23T14:18:02.554Z,72.18
2022-12-23T14:20:12.632Z,72.23
2022-12-23T14:22:18.107Z,72.45
2022-12-23T14:24:26.470Z,73.56
2022-12-23T14:26:43.077Z,73.18
2022-12-23T14:28:52.345Z,72.65
2022-12-23T14:30:54.966Z,72.35
2022-12-23T14:33:02.492Z,72.60
2022-12-23T14:35:16.077Z,72.20
2022-12-23T14:37:21.987Z,71.68
2022-12-23T14:39:31.528Z,71.68
2022-12-23T14:41:39.010Z,71.54
2022-12-23T14:43:44.727Z,71.12
2022-12-23T14:45:47.046Z,71.53
2022-12-23T14:47:49.432Z,72.26
2022-12-23T14:49:51.852Z,72.36
2022-12-23T14:51:54.143Z,72.60
2022-12-23T14:53:59.772Z,72.38
2022-12-23T14:56:08.096Z,73.04
2022-12-23T14:58:11.983Z,72.95
2022-12-23T15:00:14.788Z,73.49
2022-12-23T15:02:25.400Z,73.59
2022-12-23T15:04:44.464Z,74.23
2022-12-23T15:06:51.354Z,74.68
2022-12-23T15:08:55.950Z,75.71
2022-12-23T15:10:58.417Z,76.22
2022-12-23T15:13:04.879Z,76.94
2022-12-23T15:15:15.330Z,77.31
2022-12-23T15:17:26.947Z,77.16
2022-12-23T15:19:29.022Z,77.37
2022-12-23T15:21:36.373Z,77.47
2022-12-23T15:23:39.017Z,77.52
2022-12-23T15:25:45.006Z,77.54
2022-12-23T15:27:47.663Z,76.72
2022-12-23T15:29:53.725Z,76.42
2022-12-23T15:31:58.784Z,77.18
2022-12-23T15:34:13.330Z,76.97
2022-12-23T15:36:27.102Z,77.14
2022-12-23T15:38:32.073Z,76.74
2022-12-23T15:40:35.921Z,75.88
2022-12-23T15:42:39.037Z,75.65
2022-12-23T15:44:41.060Z,75.12
2022-12-23T15:46:44.628Z,74.60
2022-12-23T15:48:48.096Z,74.43
2022-12-23T15:50:53.473Z,73.62
2022-12-23T15:53:00.279Z,73.63
2022-12-23T15:55:14.289Z,72.64
2022-12-23T15:57:20.702Z,72.89
2022-12-23T15:59:27.773Z,72.31
2022-12-23T16:01:38.510Z,71.93
2022-12-23T16:03:42.895Z,72.34
2022-12-23T16:05:44.965Z,70.95
2022-12-23T16:07:46.758Z,70.21
2022-12-23T16:09:54.518Z,70.71
2022-12-23T16:11:58.386Z,70.34
2022-12-23T16:14:20.302Z,70.16
2022-12-23T16:16:34.584Z,71.05
2022-12-23T16:18:47.192Z,69.69
2022-12-23T16:20:53.838Z,70.03
2022-12-23T16:23:00.749Z,69.85
2022-12-23T16:25:20.141Z,69.63
2022-12-23T16:27:33.435Z,69.27
2022-12-23T16:29:35.277Z,69.35
2022-12-23T16:31:37.874Z,69.47
2022-12-23T16:33:44.788Z,69.73
2022-12-23T16:35:46.741Z,69.66
2022-12-23T16:37:51.273Z,69.03
2022-12-23T16:39:53.354Z,69.39
2022-12-23T16:41:55.151Z,69.26
2022-12-23T16:43:56.861Z,69.83
2022-12-23T16:45:59.204Z,69.07
2022-12-23T16:48:02.655Z,69.54
2022-12-23T16:50:05.445Z,69.46
2022-12-23T16:52:09.306Z,69.48
2022-12-23T16:54:17.115Z,69.90
2022-12-23T16:56:21.202Z,69.53
2022-12-23T16:58:23.000Z,69.34
2022-12-23T17:00:25.071Z,69.49
2022-12-23T17:02:28.863Z,69.41
2022-12-23T17:04:30.695Z,69.52
2022-12-23T17:06:32.755Z,69.33
2022-12-23T17:08:35.566Z,69.60
2022-12-23T17:10:39.641Z,69.52
2022-12-23T17:12:43.194Z,69.36
2022-12-23T17:14:44.933Z,69.56
2022-12-23T17:16:47.871Z,70.28
2022-12-23T17:18:50.927Z,69.61
2022-12-23T17:20:52.760Z,70.19
2022-12-23T17:22:58.555Z,69.78
2022-12-23T17:25:00.317Z,70.38
2022-12-23T17:27:02.104Z,70.17
2022-12-23T17:29:05.164Z,70.12
2022-12-23T17:31:13.929Z,69.83
2022-12-23T17:33:18.677Z,69.39
2022-12-23T17:35:21.004Z,69.57
2022-12-23T17:37:23.004Z,69.63
2022-12-23T17:39:24.720Z,69.30
2022-12-23T17:41:31.011Z,69.07
2022-12-23T17:43:32.725Z,68.77
2022-12-23T17:45:34.612Z,68.46
2022-12-23T17:47:36.360Z,68.71
2022-12-23T17:49:38.028Z,68.71
2022-12-23T17:51:40.528Z,68.54
2022-12-23T17:53:42.720Z,68.58
2022-12-23T17:55:44.728Z,68.37
2022-12-23T17:57:46.921Z,68.28
2022-12-23T17:59:49.760Z,67.97
2022-12-23T18:01:51.784Z,67.50
2022-12-23T18:03:56.156Z,67.66
2022-12-23T18:06:01.960Z,67.92
2022-12-23T18:08:04.139Z,68.04
2022-12-23T18:10:06.902Z,67.89
2022-12-23T18:12:24.935Z,67.84
2022-12-23T18:14:28.338Z,68.10
2022-12-23T18:16:30.477Z,67.28
2022-12-23T18:18:43.489Z,67.77
2022-12-23T18:20:51.018Z,68.53
2022-12-23T18:22:54.907Z,68.42
2022-12-23T18:24:59.577Z,68.32
2022-12-23T18:27:01.992Z,67.90
2022-12-23T18:29:03.772Z,68.42
2022-12-23T18:31:05.934Z,67.99
2022-12-23T18:33:11.335Z,68.20
2022-12-23T18:35:22.714Z,68.19
2022-12-23T18:37:24.624Z,67.96
2022-12-23T18:39:26.300Z,68.17
2022-12-23T18:41:28.327Z,68.25
2022-12-23T18:43:30.095Z,67.71
2022-12-23T18:45:42.036Z,67.82
2022-12-23T18:47:43.967Z,68.06
2022-12-23T18:49:45.750Z,68.18
2022-12-23T18:51:47.915Z,68.56
2022-12-23T18:53:49.658Z,68.56
2022-12-23T18:55:52.296Z,68.13
2022-12-23T18:57:54.492Z,68.58
2022-12-23T18:59:56.264Z,68.79
2022-12-23T19:01:58.579Z,68.97
2022-12-23T19:04:00.560Z,68.83
2022-12-23T19:06:07.075Z,68.75
2022-12-23T19:08:10.190Z,69.14
2022-12-23T19:10:16.912Z,69.21
2022-12-23T19:12:19.516Z,68.73
2022-12-23T19:14:21.350Z,69.05
2022-12-23T19:16:23.276Z,68.93
2022-12-23T19:18:25.050Z,68.60
2022-12-23T19:20:26.774Z,68.64
2022-12-23T19:22:28.509Z,68.62
2022-12-23T19:24:30.601Z,68.78
2022-12-23T19:26:32.429Z,68.65
2022-12-23T19:28:34.315Z,68.73
2022-12-23T19:30:36.902Z,68.67
2022-12-23T19:32:38.755Z,68.98
2022-12-23T19:34:40.505Z,68.80
2022-12-23T19:36:42.309Z,69.37
2022-12-23T19:38:44.206Z,68.70
2022-12-23T19:40:45.936Z,68.73
2022-12-23T19:42:47.696Z,68.62
2022-12-23T19:44:49.461Z,68.70
2022-12-23T19:46:51.306Z,68.97
2022-12-23T19:48:53.775Z,68.61
2022-12-23T19:50:58.696Z,69.08
2022-12-23T19:53:00.472Z,68.72
2022-12-23T19:55:02.474Z,68.65
2022-12-23T19:57:04.314Z,68.76
2022-12-23T19:59:06.009Z,68.62
2022-12-23T20:01:10.161Z,69.05
2022-12-23T20:03:12.248Z,68.69
2022-12-23T20:05:14.061Z,68.58
2022-12-23T20:07:16.160Z,68.62
2022-12-23T20:09:18.270Z,68.91
2022-12-23T20:11:23.787Z,69.20
2022-12-23T20:13:25.481Z,69.08
2022-12-23T20:15:27.287Z,69.05
2022-12-23T20:17:29.070Z,69.18
2022-12-23T20:19:30.799Z,69.14
2022-12-23T20:21:34.173Z,68.99
2022-12-23T20:23:35.916Z,69.41
2022-12-23T20:25:37.749Z,69.29
2022-12-23T20:27:39.515Z,70.01
2022-12-23T20:29:41.196Z,70.03
2022-12-23T20:31:43.428Z,70.04
2022-12-23T20:33:46.225Z,69.82
2022-12-23T20:35:47.890Z,69.99
2022-12-23T20:37:49.712Z,70.58
2022-12-23T20:39:51.568Z,70.20
2022-12-23T20:41:53.335Z,70.05
2022-12-23T20:46:18.105Z,70.55
2022-12-23T20:48:21.917Z,70.24
2022-12-23T20:50:23.854Z,70.13
2022-12-23T20:52:25.769Z,70.12
2022-12-23T20:54:32.659Z,70.36
2022-12-23T20:56:35.031Z,70.85
2022-12-23T20:58:47.454Z,70.04
2022-12-23T21:00:50.392Z,70.75
2022-12-23T21:02:52.366Z,70.74
2022-12-23T21:04:54.131Z,70.64
2022-12-23T21:06:56.014Z,70.86
2022-12-23T21:08:59.980Z,70.54
2022-12-23T21:11:02.722Z,70.50
2022-12-23T21:13:04.631Z,71.14
2022-12-23T21:15:07.213Z,71.51
2022-12-23T21:17:09.141Z,71.37
2022-12-23T21:19:17.580Z,70.88
2022-12-23T21:21:23.683Z,70.90
2022-12-23T21:23:26.291Z,71.41
2022-12-23T21:25:28.217Z,71.18
2022-12-23T21:27:30.118Z,71.22
2022-12-23T21:29:32.144Z,71.78
2022-12-23T21:31:36.334Z,71.36
2022-12-23T21:33:40.332Z,71.15
2022-12-23T21:35:42.088Z,71.08
2022-12-23T21:37:43.901Z,71.72
2022-12-23T21:39:45.777Z,71.27
2022-12-23T21:41:49.242Z,71.46
2022-12-23T21:43:52.156Z,71.83
2022-12-23T21:46:06.939Z,71.86
2022-12-23T21:48:08.975Z,71.50
2022-12-23T21:50:11.022Z,71.72
2022-12-23T21:52:12.792Z,71.90
2022-12-23T21:54:14.656Z,71.70
2022-12-23T21:56:20.644Z,71.96
2022-12-23T21:58:22.571Z,71.66
2022-12-23T22:00:24.518Z,71.93
2022-12-23T22:02:26.569Z,72.15
2022-12-23T22:04:28.533Z,71.83
2022-12-23T22:06:36.819Z,72.37
2022-12-23T22:08:39.290Z,72.05
2022-12-23T22:10:41.121Z,72.36
2022-12-23T22:12:42.935Z,72.05
2022-12-23T22:14:45.591Z,72.05
2022-12-23T22:16:47.653Z,72.55
2022-12-23T22:18:50.899Z,72.28
2022-12-23T22:20:52.782Z,72.44
2022-12-23T22:22:54.878Z,73.04
2022-12-23T22:24:56.672Z,73.18
2022-12-23T22:26:58.449Z,73.02
2022-12-23T22:29:02.158Z,73.34
2022-12-23T22:31:13.940Z,73.44
2022-12-23T22:33:16.008Z,72.95
2022-12-23T22:35:17.913Z,73.47
2022-12-23T22:37:19.718Z,73.31
2022-12-23T22:39:22.159Z,73.98
2022-12-23T22:41:25.802Z,74.00
2022-12-23T22:43:27.690Z,74.16
2022-12-23T22:45:29.611Z,74.37
2022-12-23T22:47:32.201Z,74.46
2022-12-23T22:49:34.111Z,73.88
2022-12-23T22:51:35.999Z,73.98
2022-12-23T22:53:38.008Z,74.38
2022-12-23T22:55:40.000Z,74.63
2022-12-23T22:57:41.941Z,75.22
2022-12-23T22:59:44.017Z,75.55
2022-12-23T23:01:46.064Z,75.74
2022-12-23T23:03:51.097Z,75.46
2022-12-23T23:06:06.106Z,75.48
2022-12-23T23:08:07.999Z,75.32
2022-12-23T23:10:10.739Z,75.57
2022-12-23T23:12:12.642Z,75.55
2022-12-23T23:14:14.732Z,76.43
2022-12-23T23:16:16.941Z,75.89
2022-12-23T23:18:19.141Z,76.50
2022-12-23T23:20:21.099Z,76.04
2022-12-23T23:22:24.635Z,76.87
2022-12-23T23:24:31.231Z,76.77
2022-12-23T23:26:33.413Z,76.56
2022-12-23T23:28:35.379Z,76.58
2022-12-23T23:30:37.733Z,77.08
2022-12-23T23:32:39.765Z,76.90
2022-12-23T23:34:42.389Z,76.84
2022-12-23T23:36:44.288Z,77.46
2022-12-23T23:38:46.150Z,77.39
2022-12-23T23:40:49.120Z,77.27
2022-12-23T23:42:51.018Z,78.07
2022-12-23T23:44:52.841Z,77.71
2022-12-23T23:46:54.739Z,77.92
2022-12-23T23:48:56.625Z,78.26
2022-12-23T23:51:06.735Z,77.95
2022-12-23T23:53:10.391Z,78.55
2022-12-23T23:55:12.647Z,78.84
2022-12-23T23:57:16.650Z,78.84
2022-12-23T23:59:18.559Z,78.47
